Time,TemperatureF,DewpointF,PressureIn,WindDirection,WindDirectionDegrees,WindSpeedMPH,WindSpeedGustMPH,Humidity,HourlyPrecipIn,Conditions,Clouds,dailyrainin,SoftwareType,DateUTC
2013-07-26 00:02:00,83.0,-99.9,-100.00,SE,125,3.0,5.0,-999,-99.99,,,-99.99,,2013-07-26 05:02:00,
2013-07-26 00:12:00,83.0,-99.9,-100.00,SE,125,3.0,5.0,-999,-99.99,,,-99.99,,2013-07-26 05:12:00,
2013-07-26 00:22:00,83.0,-99.9,-100.00,SE,129,2.0,6.0,-999,-99.99,,,-99.99,,2013-07-26 05:22:00,
2013-07-26 00:32:00,83.0,64.0,29.96,ESE,113,4.0,6.0,53,0.00,,,-99.99,,2013-07-26 05:32:00,
2013-07-26 00:43:00,83.0,64.0,29.96,ESE,113,4.0,6.0,53,0.00,,,-99.99,,2013-07-26 05:43:00,
2013-07-26 00:52:00,83.0,65.0,29.96,SSE,148,5.0,8.0,54,0.00,,,-99.99,,2013-07-26 05:52:00,
2013-07-26 01:02:00,83.0,65.0,29.96,SSE,148,5.0,8.0,54,0.00,,,-99.99,,2013-07-26 06:02:00,
2013-07-26 01:12:00,83.0,65.0,29.96,SSE,148,5.0,8.0,54,0.00,,,-99.99,,2013-07-26 06:12:00,
2013-07-26 01:22:00,82.0,-99.9,-100.00,SE,145,4.0,9.0,-999,-99.99,,,-99.99,,2013-07-26 06:22:00,
2013-07-26 01:33:00,82.0,-99.9,-100.00,SE,145,4.0,9.0,-999,-99.99,,,-99.99,,2013-07-26 06:33:00,
2013-07-26 01:43:00,82.0,-99.9,-100.00,SE,145,4.0,9.0,-999,-99.99,,,-99.99,,2013-07-26 06:43:00,
2013-07-26 01:52:00,82.0,-99.9,-100.00,SE,145,4.0,9.0,-999,-99.99,,,-99.99,,2013-07-26 06:52:00,
2013-07-26 02:02:00,82.0,-99.9,-100.00,SE,145,4.0,9.0,-999,-99.99,,,-99.99,,2013-07-26 07:02:00,
2013-07-26 02:12:00,81.0,-99.9,-100.00,SSE,157,2.0,11.0,-999,0.00,,,-99.99,,2013-07-26 07:12:00,
2013-07-26 02:22:00,81.0,68.0,29.96,SE,131,7.0,10.0,65,0.00,,,-99.99,,2013-07-26 07:22:00,
2013-07-26 02:32:00,81.0,68.0,29.96,SE,131,7.0,10.0,65,0.00,,,-99.99,,2013-07-26 07:32:00,
2013-07-26 02:43:00,81.0,69.0,29.96,SW,232,4.0,8.0,67,0.00,,,-99.99,,2013-07-26 07:43:00,
2013-07-26 02:52:00,81.0,69.0,29.96,SW,232,4.0,8.0,67,0.00,,,-99.99,,2013-07-26 07:52:00,
2013-07-26 03:02:00,80.0,-99.9,-100.00,SSW,201,6.0,9.0,-999,-99.99,,,-99.99,,2013-07-26 08:02:00,
2013-07-26 03:12:00,80.0,69.0,29.94,SW,214,3.0,7.0,70,0.00,,,-99.99,,2013-07-26 08:12:00,
2013-07-26 03:22:00,80.0,69.0,29.94,SW,214,3.0,7.0,70,0.00,,,-99.99,,2013-07-26 08:22:00,
2013-07-26 03:32:00,80.0,69.0,29.94,South,184,3.0,8.0,70,0.00,,,-99.99,,2013-07-26 08:32:00,
2013-07-26 03:44:00,80.0,69.0,29.94,South,184,3.0,8.0,70,0.00,,,-99.99,,2013-07-26 08:44:00,
2013-07-26 03:52:00,80.0,69.0,29.94,South,184,3.0,8.0,70,0.00,,,-99.99,,2013-07-26 08:52:00,
2013-07-26 04:02:00,79.0,-99.9,-100.00,SSE,165,6.0,8.0,-999,0.00,,,-99.99,,2013-07-26 09:02:00,
2013-07-26 04:12:00,78.0,68.0,29.94,SSW,210,5.0,6.0,72,0.00,,,-99.99,,2013-07-26 09:12:00,
2013-07-26 04:22:00,78.0,68.0,29.94,SSW,210,5.0,6.0,72,0.00,,,-99.99,,2013-07-26 09:22:00,
2013-07-26 04:32:00,78.0,68.0,29.94,SSW,210,5.0,6.0,72,0.00,,,-99.99,,2013-07-26 09:32:00,
2013-07-26 04:43:00,78.0,68.0,29.94,SSW,210,5.0,6.0,72,0.00,,,-99.99,,2013-07-26 09:43:00,
2013-07-26 04:52:00,78.0,69.0,29.95,South,176,2.0,6.0,73,0.00,,,-99.99,,2013-07-26 09:52:00,
2013-07-26 05:02:00,77.0,68.0,29.95,SW,218,5.0,6.0,74,0.00,,,-99.99,,2013-07-26 10:02:00,
2013-07-26 05:12:00,77.0,68.0,29.95,SW,218,5.0,6.0,74,0.00,,,-99.99,,2013-07-26 10:12:00,
2013-07-26 05:22:00,77.0,68.0,29.95,SW,218,5.0,6.0,74,0.00,,,-99.99,,2013-07-26 10:22:00,
2013-07-26 05:33:00,77.0,67.0,29.95,South,188,2.0,7.0,71,0.00,,,-99.99,,2013-07-26 10:33:00,
2013-07-26 05:42:00,77.0,67.0,29.95,South,188,2.0,7.0,71,0.00,,,-99.99,,2013-07-26 10:42:00,
2013-07-26 05:52:00,77.0,66.0,29.94,SW,225,1.0,7.0,70,0.00,,,-99.99,,2013-07-26 10:52:00,
2013-07-26 06:02:00,77.0,66.0,29.94,SW,225,1.0,7.0,70,0.00,,,-99.99,,2013-07-26 11:02:00,
2013-07-26 06:12:00,76.0,66.0,29.95,SSW,198,2.0,5.0,71,0.00,,,-99.99,,2013-07-26 11:12:00,
2013-07-26 06:22:00,76.0,66.0,29.95,WSW,240,3.0,3.0,72,0.00,,,-99.99,,2013-07-26 11:22:00,
2013-07-26 06:32:00,76.0,66.0,29.95,WSW,240,3.0,3.0,72,0.00,,,-99.99,,2013-07-26 11:32:00,
2013-07-26 06:43:00,75.0,65.0,29.96,South,190,1.0,3.0,72,0.00,,,-99.99,,2013-07-26 11:43:00,
2013-07-26 06:52:00,75.0,65.0,29.96,South,190,1.0,3.0,72,0.00,,,-99.99,,2013-07-26 11:52:00,
2013-07-26 07:02:00,75.0,65.0,29.96,South,190,1.0,3.0,72,0.00,,,-99.99,,2013-07-26 12:02:00,
2013-07-26 07:12:00,75.0,66.0,29.96,SW,217,0.0,0.0,74,0.00,,,-99.99,,2013-07-26 12:12:00,
2013-07-26 07:22:00,75.0,66.0,29.96,SW,217,0.0,0.0,74,0.00,,,-99.99,,2013-07-26 12:22:00,
2013-07-26 07:33:00,75.0,66.0,29.96,SW,217,0.0,0.0,74,0.00,,,-99.99,,2013-07-26 12:33:00,
2013-07-26 07:43:00,75.0,66.0,29.96,SSE,148,0.0,0.0,73,0.00,,,-99.99,,2013-07-26 12:43:00,
2013-07-26 07:53:00,75.0,66.0,29.96,SSE,148,0.0,0.0,73,0.00,,,-99.99,,2013-07-26 12:53:00,
2013-07-26 08:02:00,75.0,66.0,29.96,SSE,148,0.0,0.0,74,0.00,,,-99.99,,2013-07-26 13:02:00,
2013-07-26 08:12:00,76.0,68.0,29.97,SSE,148,0.0,0.0,76,0.00,,,-99.99,,2013-07-26 13:12:00,
2013-07-26 08:22:00,76.0,68.0,29.97,SSE,148,0.0,0.0,76,0.00,,,-99.99,,2013-07-26 13:22:00,
2013-07-26 08:32:00,78.0,-99.9,-100.00,SSE,162,4.0,6.0,-999,0.00,,,-99.99,,2013-07-26 13:32:00,
2013-07-26 08:43:00,78.0,69.0,29.98,SSW,212,6.0,6.0,74,0.00,,,-99.99,,2013-07-26 13:43:00,
2013-07-26 08:53:00,78.0,69.0,29.98,SSW,212,6.0,6.0,74,0.00,,,-99.99,,2013-07-26 13:53:00,
2013-07-26 09:02:00,78.0,69.0,29.97,West,260,4.0,6.0,73,0.00,,,-99.99,,2013-07-26 14:02:00,
2013-07-26 09:12:00,78.0,69.0,29.97,West,260,4.0,6.0,73,0.00,,,-99.99,,2013-07-26 14:12:00,
2013-07-26 09:22:00,79.0,68.0,29.98,SSW,211,2.0,6.0,70,0.00,,,-99.99,,2013-07-26 14:22:00,
2013-07-26 09:32:00,80.0,68.0,29.97,SSW,194,6.0,9.0,67,0.00,,,-99.99,,2013-07-26 14:32:00,
2013-07-26 09:43:00,80.0,68.0,29.97,SSW,194,6.0,9.0,67,0.00,,,-99.99,,2013-07-26 14:43:00,
2013-07-26 09:53:00,80.0,68.0,29.97,SSW,194,6.0,9.0,67,0.00,,,-99.99,,2013-07-26 14:53:00,
2013-07-26 10:02:00,80.0,68.0,29.97,SSW,194,6.0,9.0,67,0.00,,,-99.99,,2013-07-26 15:02:00,
2013-07-26 10:12:00,80.0,68.0,29.97,SSW,194,6.0,9.0,67,0.00,,,-99.99,,2013-07-26 15:12:00,
2013-07-26 10:22:00,84.0,67.0,29.97,West,267,2.0,10.0,56,0.00,,,-99.99,,2013-07-26 15:22:00,
2013-07-26 10:33:00,85.0,66.0,29.97,SSW,204,6.0,9.0,53,0.00,,,-99.99,,2013-07-26 15:33:00,
2013-07-26 10:43:00,85.0,66.0,29.97,SSW,204,6.0,9.0,53,0.00,,,-99.99,,2013-07-26 15:43:00,
2013-07-26 10:53:00,86.0,66.0,29.97,SW,235,1.0,8.0,51,0.00,,,-99.99,,2013-07-26 15:53:00,
2013-07-26 11:02:00,86.0,66.0,29.97,SW,235,1.0,8.0,51,0.00,,,-99.99,,2013-07-26 16:02:00,
2013-07-26 11:14:00,86.0,65.0,29.97,SW,222,5.0,8.0,50,0.00,,,-99.99,,2013-07-26 16:14:00,
2013-07-26 11:22:00,87.0,64.0,29.97,West,276,1.0,7.0,47,0.00,,,-99.99,,2013-07-26 16:22:00,
2013-07-26 11:32:00,87.0,64.0,29.97,West,276,1.0,7.0,47,0.00,,,-99.99,,2013-07-26 16:32:00,
2013-07-26 11:43:00,87.0,64.0,29.97,West,276,1.0,7.0,47,0.00,,,-99.99,,2013-07-26 16:43:00,
2013-07-26 11:54:00,87.0,64.0,29.97,West,276,1.0,7.0,47,0.00,,,-99.99,,2013-07-26 16:54:00,
2013-07-26 12:02:00,87.0,64.0,29.97,West,276,1.0,7.0,47,0.00,,,-99.99,,2013-07-26 17:02:00,
2013-07-26 12:12:00,92.0,66.0,29.96,South,176,6.0,14.0,43,0.00,,,-99.99,,2013-07-26 17:12:00,
2013-07-26 12:22:00,93.0,66.0,29.96,South,184,4.0,9.0,41,0.00,,,-99.99,,2013-07-26 17:22:00,
2013-07-26 12:33:00,93.0,66.0,29.96,South,184,4.0,9.0,41,0.00,,,-99.99,,2013-07-26 17:33:00,
2013-07-26 12:43:00,93.0,66.0,29.96,South,184,4.0,9.0,41,0.00,,,-99.99,,2013-07-26 17:43:00,
2013-07-26 12:53:00,93.0,66.0,29.96,South,184,4.0,9.0,41,0.00,,,-99.99,,2013-07-26 17:53:00,
2013-07-26 13:02:00,93.0,66.0,29.96,South,184,4.0,9.0,41,0.00,,,-99.99,,2013-07-26 18:02:00,
2013-07-26 13:12:00,95.0,66.0,29.94,South,173,4.0,7.0,39,0.00,,,-99.99,,2013-07-26 18:12:00,
2013-07-26 13:22:00,95.0,66.0,29.94,South,173,4.0,7.0,39,0.00,,,-99.99,,2013-07-26 18:22:00,
2013-07-26 13:33:00,95.0,66.0,29.94,South,173,4.0,7.0,39,0.00,,,-99.99,,2013-07-26 18:33:00,
2013-07-26 13:43:00,95.0,66.0,29.94,South,173,4.0,7.0,39,0.00,,,-99.99,,2013-07-26 18:43:00,
2013-07-26 13:52:00,95.0,66.0,29.94,South,173,4.0,7.0,39,0.00,,,-99.99,,2013-07-26 18:52:00,
2013-07-26 14:02:00,97.0,62.0,29.93,SW,226,2.0,8.0,32,0.00,,,-99.99,,2013-07-26 19:02:00,
2013-07-26 14:12:00,97.0,62.0,29.93,SW,226,2.0,8.0,32,0.00,,,-99.99,,2013-07-26 19:12:00,
2013-07-26 14:22:00,97.0,65.0,29.92,SSW,195,1.0,209.0,35,0.00,,,-99.99,,2013-07-26 19:22:00,
2013-07-26 14:32:00,98.0,63.0,29.91,WSW,243,1.0,10.0,32,0.00,,,-99.99,,2013-07-26 19:32:00,
2013-07-26 14:43:00,98.0,63.0,29.91,WSW,243,1.0,10.0,32,0.00,,,-99.99,,2013-07-26 19:43:00,
2013-07-26 14:52:00,99.0,65.0,29.91,North,11,1.0,7.0,33,0.00,,,-99.99,,2013-07-26 19:52:00,
2013-07-26 15:02:00,98.0,63.0,29.90,WSW,240,5.0,13.0,32,0.00,,,-99.99,,2013-07-26 20:02:00,
2013-07-26 15:12:00,98.0,63.0,29.90,WSW,240,5.0,13.0,32,0.00,,,-99.99,,2013-07-26 20:12:00,
2013-07-26 15:22:00,98.0,63.0,29.90,WSW,240,5.0,13.0,32,0.00,,,-99.99,,2013-07-26 20:22:00,
2013-07-26 15:32:00,99.0,59.0,29.89,WNW,297,3.0,8.0,27,0.00,,,-99.99,,2013-07-26 20:32:00,
2013-07-26 15:43:00,99.0,59.0,29.89,WNW,297,3.0,8.0,27,0.00,,,-99.99,,2013-07-26 20:43:00,
2013-07-26 15:53:00,99.0,59.0,29.89,WNW,297,3.0,8.0,27,0.00,,,-99.99,,2013-07-26 20:53:00,
2013-07-26 16:02:00,99.0,59.0,29.89,WNW,297,3.0,8.0,27,0.00,,,-99.99,,2013-07-26 21:02:00,
2013-07-26 16:12:00,99.0,60.0,29.88,SW,218,2.0,6.0,28,0.00,,,-99.99,,2013-07-26 21:12:00,
2013-07-26 16:22:00,99.0,61.0,29.87,SSE,158,2.0,11.0,29,0.00,,,-99.99,,2013-07-26 21:22:00,
2013-07-26 16:32:00,99.0,61.0,29.87,SSE,158,2.0,11.0,29,0.00,,,-99.99,,2013-07-26 21:32:00,
2013-07-26 16:43:00,99.0,61.0,29.87,South,179,2.0,8.0,29,0.00,,,-99.99,,2013-07-26 21:43:00,
2013-07-26 16:53:00,100.0,61.0,29.86,South,187,4.0,10.0,28,0.00,,,-99.99,,2013-07-26 21:53:00,
2013-07-26 17:01:00,100.0,61.0,29.86,South,187,4.0,10.0,28,0.00,,,-99.99,,2013-07-26 22:01:00,
2013-07-26 17:12:00,99.0,61.0,29.85,SE,143,3.0,7.0,29,0.00,,,-99.99,,2013-07-26 22:12:00,
2013-07-26 17:22:00,100.0,60.0,29.84,SSE,158,6.0,7.0,27,0.00,,,-99.99,,2013-07-26 22:22:00,
2013-07-26 17:32:00,100.0,60.0,29.84,SSE,158,6.0,7.0,27,0.00,,,-99.99,,2013-07-26 22:32:00,
2013-07-26 17:43:00,99.0,60.0,29.84,East,98,3.0,9.0,28,0.00,,,-99.99,,2013-07-26 22:43:00,
2013-07-26 17:53:00,99.0,60.0,29.84,East,98,3.0,9.0,28,0.00,,,-99.99,,2013-07-26 22:53:00,
2013-07-26 18:02:00,99.0,60.0,29.84,South,169,4.0,11.0,28,0.00,,,-99.99,,2013-07-26 23:02:00,
2013-07-26 18:12:00,97.0,63.0,29.83,ESE,123,7.0,10.0,33,0.00,,,-99.99,,2013-07-26 23:12:00,
2013-07-26 18:22:00,97.0,63.0,29.83,ESE,123,7.0,10.0,33,0.00,,,-99.99,,2013-07-26 23:22:00,
2013-07-26 18:32:00,97.0,63.0,29.83,ESE,123,7.0,10.0,33,0.00,,,-99.99,,2013-07-26 23:32:00,
2013-07-26 18:43:00,96.0,62.0,29.83,ESE,121,5.0,9.0,33,0.00,,,-99.99,,2013-07-26 23:43:00,
2013-07-26 18:52:00,96.0,62.0,29.83,ESE,121,5.0,9.0,33,0.00,,,-99.99,,2013-07-26 23:52:00,
2013-07-26 19:02:00,96.0,62.0,29.83,ESE,121,5.0,9.0,33,0.00,,,-99.99,,2013-07-27 00:02:00,
2013-07-26 19:12:00,96.0,62.0,29.83,ESE,121,5.0,9.0,33,0.00,,,-99.99,,2013-07-27 00:12:00,
2013-07-26 19:22:00,96.0,62.0,29.83,ESE,121,5.0,9.0,33,0.00,,,-99.99,,2013-07-27 00:22:00,
2013-07-26 20:12:00,95.0,64.0,29.82,East,101,2.0,5.0,36,0.00,,,-99.99,,2013-07-27 01:12:00,
2013-07-26 20:22:00,94.0,64.0,29.81,East,79,2.0,5.0,38,0.00,,,-99.99,,2013-07-27 01:22:00,
2013-07-26 20:32:00,94.0,64.0,29.81,East,79,2.0,5.0,38,0.00,,,-99.99,,2013-07-27 01:32:00,
2013-07-26 20:43:00,93.0,65.0,29.82,ESE,103,3.0,5.0,40,0.00,,,-99.99,,2013-07-27 01:43:00,
2013-07-26 20:53:00,93.0,65.0,29.82,ESE,103,3.0,5.0,40,0.00,,,-99.99,,2013-07-27 01:53:00,
2013-07-26 21:02:00,93.0,65.0,29.82,ESE,103,3.0,5.0,40,0.00,,,-99.99,,2013-07-27 02:02:00,
2013-07-26 21:12:00,91.0,66.0,29.83,North,353,2.0,11.0,44,0.00,,,-99.99,,2013-07-27 02:12:00,
2013-07-26 21:22:00,91.0,66.0,29.84,NE,41,4.0,10.0,44,0.00,,,-99.99,,2013-07-27 02:22:00,
2013-07-26 21:32:00,91.0,66.0,29.84,NE,41,4.0,10.0,44,0.00,,,-99.99,,2013-07-27 02:32:00,
2013-07-26 21:43:00,89.0,67.0,29.86,NNW,347,3.0,12.0,49,0.00,,,-99.99,,2013-07-27 02:43:00,
2013-07-26 21:52:00,89.0,67.0,29.86,NNW,347,3.0,12.0,49,0.00,,,-99.99,,2013-07-27 02:52:00,
2013-07-26 22:02:00,89.0,67.0,29.86,NNW,347,3.0,12.0,49,0.00,,,-99.99,,2013-07-27 03:02:00,
2013-07-26 22:12:00,86.0,65.0,29.88,NE,46,4.0,14.0,50,0.00,,,-99.99,,2013-07-27 03:12:00,
2013-07-26 22:22:00,86.0,65.0,29.88,NE,46,4.0,14.0,50,0.00,,,-99.99,,2013-07-27 03:22:00,
2013-07-26 22:33:00,86.0,66.0,29.89,ENE,61,2.0,10.0,52,0.00,,,-99.99,,2013-07-27 03:33:00,
2013-07-26 22:44:00,86.0,66.0,29.89,ENE,61,2.0,10.0,52,0.00,,,-99.99,,2013-07-27 03:44:00,
2013-07-26 22:52:00,86.0,66.0,29.89,ENE,61,2.0,10.0,52,0.00,,,-99.99,,2013-07-27 03:52:00,
2013-07-26 23:02:00,86.0,66.0,29.89,ENE,61,2.0,10.0,52,0.00,,,-99.99,,2013-07-27 04:02:00,
2013-07-26 23:32:00,84.0,67.0,29.91,NE,56,6.0,9.0,57,0.00,,,-99.99,,2013-07-27 04:32:00,
2013-07-26 23:43:00,84.0,68.0,29.92,North,359,5.0,7.0,58,0.00,,,-99.99,,2013-07-27 04:43:00,
2013-07-26 23:53:00,84.0,68.0,29.92,North,359,5.0,7.0,58,0.00,,,-99.99,,2013-07-27 04:53:00,